createdAt,value
2022-10-08T00:04:35.634Z,78.36
2022-10-08T00:09:38.102Z,78.65
2022-10-08T00:14:40.573Z,78.49
2022-10-08T00:19:43.997Z,78.51
2022-10-08T00:24:46.028Z,78.86
2022-10-08T00:29:48.021Z,78.66
2022-10-08T00:34:50.929Z,79.00
2022-10-08T00:39:53.156Z,78.90
2022-10-08T00:44:58.722Z,79.02
2022-10-08T00:50:08.923Z,79.04
2022-10-08T00:55:13.736Z,79.09
2022-10-08T01:00:25.449Z,79.18
2022-10-08T01:05:38.863Z,79.25
2022-10-08T01:10:54.854Z,79.35
2022-10-08T01:16:07.351Z,79.57
2022-10-08T01:21:10.431Z,79.68
2022-10-08T01:26:34.394Z,80.01
2022-10-08T01:31:47.151Z,80.18
2022-10-08T01:36:52.905Z,80.26
2022-10-08T01:41:59.239Z,80.31
2022-10-08T01:47:06.722Z,80.40
2022-10-08T01:52:24.908Z,80.40
2022-10-08T01:57:31.028Z,80.56
2022-10-08T02:02:33.089Z,80.70
2022-10-08T02:07:42.384Z,80.55
2022-10-08T02:12:45.324Z,80.72
2022-10-08T02:18:06.419Z,80.89
2022-10-08T02:23:20.845Z,80.69
2022-10-08T02:28:51.070Z,80.79
2022-10-08T02:34:04.397Z,80.88
2022-10-08T02:39:08.245Z,80.61
2022-10-08T02:44:23.040Z,80.68
2022-10-08T02:49:31.477Z,80.55
2022-10-08T02:54:38.553Z,80.70
2022-10-08T02:59:42.020Z,80.58
2022-10-08T03:04:54.451Z,80.48
2022-10-08T03:09:59.647Z,80.56
2022-10-08T03:15:05.155Z,80.56
2022-10-08T03:20:09.971Z,80.22
2022-10-08T03:25:12.188Z,80.21
2022-10-08T03:30:14.842Z,80.05
2022-10-08T03:35:19.207Z,80.03
2022-10-08T03:40:22.297Z,80.03
2022-10-08T03:45:24.265Z,79.98
2022-10-08T03:50:27.818Z,79.83
2022-10-08T03:55:29.906Z,79.80
2022-10-08T04:00:32.193Z,79.72
2022-10-08T04:05:34.822Z,79.58
2022-10-08T04:10:39.690Z,79.60
2022-10-08T04:15:42.754Z,79.51
2022-10-08T04:20:45.264Z,79.50
2022-10-08T04:25:52.353Z,79.52
2022-10-08T04:30:58.915Z,79.48
2022-10-08T04:36:01.563Z,79.45
2022-10-08T04:41:06.818Z,79.52
2022-10-08T04:46:12.176Z,79.83
2022-10-08T04:51:15.476Z,79.65
2022-10-08T04:56:23.686Z,79.75
2022-10-08T05:01:28.827Z,79.51
2022-10-08T05:06:33.929Z,79.36
2022-10-08T05:11:35.881Z,79.54
2022-10-08T05:16:37.888Z,79.68
2022-10-08T05:21:39.706Z,79.71
2022-10-08T05:26:57.453Z,79.37
2022-10-08T05:32:01.660Z,79.33
2022-10-08T05:37:04.507Z,79.57
2022-10-08T05:42:07.254Z,79.53
2022-10-08T05:47:09.458Z,79.60
2022-10-08T05:52:11.437Z,79.43
2022-10-08T05:57:13.862Z,79.54
2022-10-08T06:02:15.893Z,79.45
2022-10-08T06:07:18.537Z,79.15
2022-10-08T06:12:21.404Z,79.26
2022-10-08T06:17:24.049Z,79.15
2022-10-08T06:22:26.556Z,79.22
2022-10-08T06:27:29.121Z,79.43
2022-10-08T06:32:30.981Z,79.43
2022-10-08T06:37:33.993Z,79.63
2022-10-08T06:42:36.662Z,79.24
2022-10-08T06:47:38.805Z,79.34
2022-10-08T06:52:41.127Z,79.17
2022-10-08T06:57:43.791Z,78.90
2022-10-08T07:02:47.286Z,78.86
2022-10-08T07:07:49.597Z,78.74
2022-10-08T07:12:52.200Z,78.67
2022-10-08T07:17:55.298Z,78.86
2022-10-08T07:22:57.417Z,78.39
2022-10-08T07:27:59.324Z,77.42
2022-10-08T07:33:01.355Z,77.41
2022-10-08T07:38:03.526Z,76.10
2022-10-08T07:43:06.673Z,75.39
2022-10-08T07:48:10.023Z,74.87
2022-10-08T07:53:16.574Z,74.46
2022-10-08T07:58:19.279Z,73.29
2022-10-08T08:03:24.666Z,72.77
2022-10-08T08:08:27.643Z,72.12
2022-10-08T08:13:36.942Z,71.91
2022-10-08T08:18:43.120Z,71.10
2022-10-08T08:23:50.705Z,71.48
2022-10-08T08:28:56.234Z,70.70
2022-10-08T08:34:05.348Z,70.54
2022-10-08T08:39:10.553Z,69.84
2022-10-08T08:44:24.918Z,69.53
2022-10-08T08:49:41.856Z,69.19
2022-10-08T08:54:52.961Z,69.01
2022-10-08T09:00:00.790Z,68.53
2022-10-08T09:05:12.809Z,68.47
2022-10-08T09:10:29.623Z,67.98
2022-10-08T09:15:36.097Z,67.78
2022-10-08T09:20:40.469Z,67.80
2022-10-08T09:25:47.826Z,68.02
2022-10-08T09:30:49.718Z,67.63
2022-10-08T09:35:53.924Z,67.85
2022-10-08T09:41:16.098Z,67.81
2022-10-08T09:46:33.965Z,67.29
2022-10-08T09:51:37.826Z,66.44
2022-10-08T09:56:41.675Z,66.11
2022-10-08T10:01:48.019Z,65.90
2022-10-08T10:06:54.036Z,66.10
2022-10-08T10:12:07.213Z,65.53
2022-10-08T10:17:22.604Z,65.08
2022-10-08T10:22:35.814Z,64.13
2022-10-08T10:27:46.172Z,63.48
2022-10-08T10:33:12.751Z,63.41
2022-10-08T10:38:24.597Z,63.56
2022-10-08T10:43:50.752Z,62.78
2022-10-08T10:48:56.496Z,62.08
2022-10-08T10:54:18.564Z,61.50
2022-10-08T10:59:46.054Z,61.55
2022-10-08T11:05:16.122Z,60.27
2022-10-08T11:10:41.458Z,60.19
2022-10-08T11:16:08.013Z,59.94
2022-10-08T11:21:27.036Z,60.06
2022-10-08T11:26:45.326Z,60.33
2022-10-08T11:31:53.420Z,60.16
2022-10-08T11:37:30.233Z,60.26
2022-10-08T11:43:09.611Z,60.42
2022-10-08T11:48:37.783Z,59.83
2022-10-08T11:53:42.442Z,59.63
2022-10-08T11:58:54.330Z,60.09
2022-10-08T12:04:19.000Z,60.43
2022-10-08T12:09:25.880Z,60.55
2022-10-08T12:14:33.650Z,61.00
2022-10-08T12:19:37.201Z,61.30
2022-10-08T12:24:44.796Z,61.14
2022-10-08T12:30:04.223Z,60.91
2022-10-08T12:35:28.634Z,60.71
2022-10-08T12:41:19.599Z,60.72
2022-10-08T12:46:28.640Z,61.43
2022-10-08T12:51:55.482Z,61.51
2022-10-08T12:57:01.390Z,61.32
2022-10-08T13:02:25.355Z,61.56
2022-10-08T13:07:34.691Z,61.53
2022-10-08T13:12:38.886Z,61.83
2022-10-08T13:17:43.195Z,62.35
2022-10-08T13:22:51.374Z,62.48
2022-10-08T13:28:14.245Z,62.66
2022-10-08T13:33:23.427Z,62.56
2022-10-08T13:38:34.114Z,62.37
2022-10-08T13:43:41.931Z,62.51
2022-10-08T13:48:59.316Z,62.76
2022-10-08T13:54:14.157Z,63.20
2022-10-08T13:59:27.041Z,63.61
2022-10-08T14:04:36.626Z,63.51
2022-10-08T14:09:43.568Z,63.96
2022-10-08T14:14:50.186Z,64.18
2022-10-08T14:19:57.319Z,64.31
2022-10-08T14:25:04.467Z,64.57
2022-10-08T14:30:13.677Z,64.61
2022-10-08T14:35:22.656Z,64.76
2022-10-08T14:40:31.369Z,64.80
2022-10-08T14:45:39.133Z,64.86
2022-10-08T14:50:51.556Z,65.28
2022-10-08T14:56:11.982Z,65.55
2022-10-08T15:01:21.572Z,65.80
2022-10-08T15:06:28.246Z,65.92
2022-10-08T15:11:42.968Z,66.18
2022-10-08T15:16:53.345Z,66.40
2022-10-08T15:22:01.136Z,66.68
2022-10-08T15:27:07.205Z,66.94
2022-10-08T15:32:14.317Z,67.20
2022-10-08T15:37:24.383Z,67.37
2022-10-08T15:42:35.342Z,67.38
2022-10-08T15:47:45.275Z,67.69
2022-10-08T15:52:51.240Z,67.66
2022-10-08T15:57:58.374Z,67.83
2022-10-08T16:03:06.710Z,67.81
2022-10-08T16:08:15.335Z,67.97
2022-10-08T16:13:22.632Z,68.03
2022-10-08T16:18:30.847Z,68.03
2022-10-08T16:23:40.174Z,68.10
2022-10-08T16:28:46.017Z,68.30
2022-10-08T16:34:03.781Z,68.43
2022-10-08T16:39:14.315Z,68.47
2022-10-08T16:44:19.487Z,68.62
2022-10-08T16:49:30.230Z,68.61
2022-10-08T16:54:37.824Z,68.48
2022-10-08T16:59:43.885Z,68.09
2022-10-08T17:04:48.133Z,67.84
2022-10-08T17:09:53.715Z,67.68
2022-10-08T17:14:57.788Z,67.16
2022-10-08T17:20:02.009Z,67.06
2022-10-08T17:25:06.629Z,66.81
2022-10-08T17:30:11.441Z,66.87
2022-10-08T17:35:15.769Z,66.62
2022-10-08T17:40:19.953Z,66.55
2022-10-08T17:45:23.602Z,66.68
2022-10-08T17:50:28.105Z,66.72
2022-10-08T17:55:33.941Z,66.72
2022-10-08T18:00:38.401Z,66.95
2022-10-08T18:05:42.445Z,66.83
2022-10-08T18:10:46.688Z,66.80
2022-10-08T18:15:50.591Z,66.81
2022-10-08T18:21:00.137Z,66.87
2022-10-08T18:26:16.922Z,66.90
2022-10-08T18:31:23.362Z,67.11
2022-10-08T18:36:33.939Z,67.23
2022-10-08T18:41:42.216Z,67.30
2022-10-08T18:46:46.091Z,67.35
2022-10-08T18:51:50.528Z,67.10
2022-10-08T18:56:57.544Z,67.03
2022-10-08T19:02:02.257Z,67.01
2022-10-08T19:07:07.319Z,67.12
2022-10-08T19:12:11.908Z,67.07
2022-10-08T19:17:16.849Z,67.19
2022-10-08T19:22:20.820Z,67.07
2022-10-08T19:27:25.425Z,67.17
2022-10-08T19:32:29.675Z,67.16
2022-10-08T19:37:37.033Z,67.17
2022-10-08T19:42:42.564Z,67.54
2022-10-08T19:47:47.678Z,67.48
2022-10-08T19:52:52.039Z,67.66
2022-10-08T19:57:56.245Z,67.97
2022-10-08T20:03:00.936Z,68.04
2022-10-08T20:08:08.483Z,68.20
2022-10-08T20:13:13.161Z,68.16
2022-10-08T20:18:18.086Z,68.24
2022-10-08T20:23:22.755Z,68.34
2022-10-08T20:28:28.881Z,68.54
2022-10-08T20:33:33.905Z,68.41
2022-10-08T20:38:38.932Z,68.51
2022-10-08T20:43:43.824Z,68.57
2022-10-08T20:48:48.984Z,68.59
2022-10-08T20:54:14.754Z,68.90
2022-10-08T20:59:20.686Z,68.66
2022-10-08T21:04:24.772Z,68.97
2022-10-08T21:09:29.109Z,69.31
2022-10-08T21:14:33.379Z,69.55
2022-10-08T21:19:37.583Z,69.38
2022-10-08T21:24:41.954Z,69.68
2022-10-08T21:29:46.315Z,69.76
2022-10-08T21:34:53.752Z,69.75
2022-10-08T21:39:58.825Z,70.25
2022-10-08T21:45:03.532Z,70.35
2022-10-08T21:50:08.863Z,70.11
2022-10-08T21:55:15.860Z,70.20
2022-10-08T22:00:32.697Z,70.50
2022-10-08T22:05:37.926Z,70.39
2022-10-08T22:10:42.270Z,70.55
2022-10-08T22:15:58.414Z,70.64
2022-10-08T22:21:05.294Z,70.66
2022-10-08T22:26:15.703Z,71.08
2022-10-08T22:31:20.720Z,71.35
2022-10-08T22:36:30.801Z,71.95
2022-10-08T22:41:35.706Z,71.47
2022-10-08T22:46:40.367Z,71.81
2022-10-08T22:51:44.585Z,71.95
2022-10-08T22:56:48.686Z,72.22
2022-10-08T23:01:53.095Z,72.40
2022-10-08T23:06:56.687Z,72.42
2022-10-08T23:12:01.414Z,72.37
2022-10-08T23:17:04.972Z,72.65
2022-10-08T23:22:08.354Z,72.81
2022-10-08T23:27:12.243Z,73.00
2022-10-08T23:32:16.168Z,72.88
2022-10-08T23:37:19.953Z,73.40
2022-10-08T23:42:24.090Z,73.55
2022-10-08T23:47:28.657Z,73.64
2022-10-08T23:52:32.692Z,73.67
2022-10-08T23:57:36.789Z,73.89
